Pagina principale
METAR-TAF:

METAR-TAF

Aeroporti :

Vereeniging, Sudafrica

latitudine: 26-34-29S, longitudine: 027-57-45E, altezza: 1483 m

Osservazione

Il bollettino è stato emesso 51 minuti fa, alle 09:00 UTC
Vento 7 kt da ovest/nord-ovest
Temperature 23°C
Umidità 47%
Pressione 1023 hPa

METAR: FAVV 280900Z AUTO 30007KT //// // ////// 23/11 Q1023

Ora: 11:51 (09:51 UTC)


TAF: mancante

Osservazioni e previsioni meteorologiche di più di 4000 aeroporti (messaggi METAR e TAF).

Le stazioni disponibili sono rappresentate dai dischi gialli e rossi sulla carta.

Puntare il mouse per vedere il nome della stazione.

Clicca sopra per visualizzare le osservazioni e previsioni meteorologiche.

Per cambiare la mappa : fare clic sui pulsanti verdi con una croce nera per ingrandire, il pulsante verde con un trattino per diminuire, o sulla freccia verde per le mappe adiacenti.


METAR-TAF: